Time;durP1;ratioP1;P1;durP2;ratioP2;P2;SDS_P1;SDS_P2;PMS_P1;PMS_P2;Temp;Humidity;BMP_temperature;BMP_pressure;BME280_temperature;BME280_humidity;BME280_pressure;Samples;Min_cycle;Max_cycle;Signal;HPM_P1;HPM_P2
2021/08/05 00:00:47;;;;;;;;;;;;;;;24.82;50.68;100591.09;5013626;28;1780;-53
2021/08/05 00:03:15;;;;;;;;;;;;;;;24.76;51.06;100570.16;5013429;28;1824;-53
2021/08/05 00:05:43;;;;;;;;;;;;;;;24.69;51.36;100586.25;5010334;28;1715;-53
2021/08/05 00:08:10;;;;;;;;;;;;;;;24.51;51.29;100586.53;5006730;28;1972;-53
2021/08/05 00:10:41;;;;;;;;;;;;;;;24.52;50.87;100585.50;4999255;28;1825;-53
2021/08/05 00:13:08;;;;;;;;;;;;;;;24.55;51.09;100595.97;5012494;28;1645;-53
2021/08/05 00:15:36;;;;;;;;;;;;;;;24.51;51.10;100589.22;4999784;28;1665;-53
2021/08/05 00:18:03;;;;;;;;;;;;;;;24.52;51.11;100588.19;5001359;28;1069;-53
2021/08/05 00:20:30;;;;;;;;;;;;;;;24.55;51.17;100593.25;4996598;28;1433;-53
2021/08/05 00:22:57;;;;;;;;;;;;;;;24.63;51.45;100589.69;5004355;28;1958;-53
2021/08/05 00:25:23;;;;;;;;;;;;;;;24.58;51.07;100595.59;5014981;28;1081;-53
2021/08/05 00:27:51;;;;;;;;;;;;;;;24.58;51.54;100587.50;5006253;28;1906;-53
2021/08/05 00:30:17;;;;;;;;;;;;;;;24.59;51.42;100585.63;5004330;28;1707;-53
2021/08/05 00:32:44;;;;;;;;;;;;;;;24.64;51.52;100585.09;5004170;28;1737;-53
2021/08/05 00:35:11;;;;;;;;;;;;;;;24.59;51.16;100585.63;5006321;28;1647;-53
2021/08/05 00:37:37;;;;;;;;;;;;;;;24.67;51.15;100590.16;5011069;28;1700;-53
2021/08/05 00:40:04;;;;;;;;;;;;;;;24.59;50.79;100581.06;5001892;28;1655;-54
2021/08/05 00:42:31;;;;;;;;;;;;;;;24.57;51.51;100576.84;5004636;28;1895;-53
2021/08/05 00:44:59;;;;;;;;;;;;;;;24.63;50.73;100569.88;5013138;28;1945;-54
2021/08/05 00:47:27;;;;;;;;;;;;;;;24.64;51.05;100577.00;5005854;28;1918;-53
2021/08/05 00:49:54;;;;;;;;;;;;;;;24.57;51.86;100575.00;5013385;28;2028;-53
2021/08/05 00:52:24;;;;;;;;;;;;;;;24.65;51.37;100567.84;5009336;28;1954;-53
2021/08/05 00:54:55;;;;;;;;;;;;;;;24.64;51.48;100579.69;5003460;28;1062;-53
2021/08/05 00:57:22;;;;;;;;;;;;;;;24.61;51.82;100562.81;5003509;28;1891;-54
2021/08/05 00:59:56;;;;;;;;;;;;;;;24.72;51.75;100560.72;5012841;28;1826;-53
2021/08/05 01:02:27;;;;;;;;;;;;;;;24.60;51.75;100555.72;5012545;28;2047;-53
2021/08/05 01:04:56;;;;;;;;;;;;;;;24.68;51.10;100545.88;5012667;28;1898;-53
2021/08/05 01:07:33;;;;;;;;;;;;;;;24.69;51.56;100551.13;4994636;28;1906;-53
2021/08/05 01:10:03;;;;;;;;;;;;;;;24.56;51.79;100557.09;5013227;28;1112;-53
2021/08/05 01:12:36;;;;;;;;;;;;;;;24.59;51.80;100547.78;5013044;28;1596;-53
2021/08/05 01:15:13;;;;;;;;;;;;;;;24.55;51.91;100559.97;4997083;28;1449;-53
2021/08/05 01:17:47;;;;;;;;;;;;;;;24.58;51.54;100556.91;5013390;28;1535;-53
2021/08/05 01:20:17;;;;;;;;;;;;;;;24.55;51.81;100568.94;5012582;28;1881;-53
2021/08/05 01:22:48;;;;;;;;;;;;;;;24.52;51.90;100569.28;5012951;28;1654;-53
2021/08/05 01:25:24;;;;;;;;;;;;;;;24.60;51.83;100557.56;4994412;28;1007;-53
2021/08/05 01:27:57;;;;;;;;;;;;;;;24.60;52.04;100561.13;4997390;28;1972;-53
2021/08/05 01:30:26;;;;;;;;;;;;;;;24.67;51.54;100552.28;5005508;28;1784;-53
2021/08/05 01:33:04;;;;;;;;;;;;;;;24.54;52.00;100539.38;5012981;28;1644;-53
2021/08/05 01:35:32;;;;;;;;;;;;;;;24.55;51.80;100531.09;5007726;28;1784;-53
2021/08/05 01:38:01;;;;;;;;;;;;;;;24.55;51.51;100533.78;5006015;28;1416;-53
2021/08/05 01:40:31;;;;;;;;;;;;;;;24.46;52.27;100526.69;5012842;28;1993;-53
2021/08/05 01:43:02;;;;;;;;;;;;;;;24.55;52.06;100531.09;5012475;28;1305;-53
2021/08/05 01:45:29;;;;;;;;;;;;;;;24.52;52.50;100528.72;5010848;28;1797;-53
2021/08/05 01:47:57;;;;;;;;;;;;;;;24.45;52.31;100526.88;5002541;28;1985;-53
2021/08/05 01:50:24;;;;;;;;;;;;;;;24.46;52.68;100548.31;5002838;28;1091;-53
2021/08/05 01:52:50;;;;;;;;;;;;;;;24.44;52.31;100522.50;5009094;28;2037;-53
2021/08/05 01:55:17;;;;;;;;;;;;;;;24.37;51.98;100512.41;5005984;28;1931;-54
2021/08/05 01:57:43;;;;;;;;;;;;;;;24.45;51.75;100518.75;5011605;28;1982;-53
2021/08/05 02:02:53;;;;;;;;;;;;;;;24.35;52.36;100508.19;5055895;22;1737;-53
2021/08/05 02:05:25;;;;;;;;;;;;;;;24.45;52.49;100525.00;5027534;28;1694;-54
2021/08/05 02:07:59;;;;;;;;;;;;;;;24.50;51.70;100508.28;5031447;28;1902;-53
2021/08/05 02:10:34;;;;;;;;;;;;;;;24.40;52.34;100508.50;5020966;28;1534;-54
2021/08/05 02:13:03;;;;;;;;;;;;;;;24.46;51.87;100510.47;5016545;28;1821;-53
2021/08/05 02:15:31;;;;;;;;;;;;;;;24.46;52.62;100502.38;5020043;28;1614;-53
2021/08/05 02:18:08;;;;;;;;;;;;;;;24.40;52.34;100489.56;4983780;28;1342;-54
2021/08/05 02:20:35;;;;;;;;;;;;;;;24.44;52.79;100493.59;5032100;28;1019;-53
2021/08/05 02:23:23;;;;;;;;;;;;;;;24.46;52.04;100493.44;5026013;28;1840;-54
2021/08/05 02:25:54;;;;;;;;;;;;;;;24.32;52.28;100497.72;5015317;28;1070;-53
2021/08/05 02:28:22;;;;;;;;;;;;;;;24.39;52.49;100510.38;5031930;28;1887;-53
2021/08/05 02:30:51;;;;;;;;;;;;;;;24.36;52.72;100507.16;5026898;28;2040;-53
2021/08/05 02:33:24;;;;;;;;;;;;;;;24.40;52.36;100512.03;5020492;28;1737;-53
2021/08/05 02:36:01;;;;;;;;;;;;;;;24.43;52.40;100508.13;5023226;28;1925;-53
2021/08/05 02:38:29;;;;;;;;;;;;;;;24.49;52.72;100504.75;5020847;28;1850;-53
2021/08/05 02:41:00;;;;;;;;;;;;;;;24.49;52.14;100503.88;5033889;28;2001;-53
2021/08/05 02:43:29;;;;;;;;;;;;;;;24.36;52.15;100509.88;5023548;28;1408;-54
2021/08/05 02:45:59;;;;;;;;;;;;;;;24.35;52.60;100513.56;5022601;28;1407;-53
2021/08/05 02:48:41;;;;;;;;;;;;;;;24.43;52.42;100521.63;5015803;28;1902;-53
2021/08/05 02:51:21;;;;;;;;;;;;;;;24.31;52.22;100506.84;5015144;28;1079;-53
2021/08/05 02:53:54;;;;;;;;;;;;;;;24.32;52.45;100508.53;5030593;28;1787;-53
2021/08/05 02:56:21;;;;;;;;;;;;;;;24.28;52.57;100499.94;5015657;28;1760;-54
2021/08/05 02:58:51;;;;;;;;;;;;;;;24.31;53.07;100501.44;5034850;28;1047;-54
2021/08/05 03:01:20;;;;;;;;;;;;;;;24.27;53.27;100510.91;5026258;28;1450;-53
2021/08/05 03:03:50;;;;;;;;;;;;;;;24.29;52.56;100504.34;5016967;28;1803;-53
2021/08/05 03:06:26;;;;;;;;;;;;;;;24.34;52.80;100503.81;5018631;28;1801;-53
2021/08/05 03:08:53;;;;;;;;;;;;;;;24.44;52.51;100499.00;5022778;28;1977;-54
2021/08/05 03:11:24;;;;;;;;;;;;;;;24.42;53.18;100514.56;5025300;28;1383;-54
2021/08/05 03:13:50;;;;;;;;;;;;;;;24.23;52.76;100505.03;5020003;28;1613;-53
2021/08/05 03:16:21;;;;;;;;;;;;;;;24.30;53.56;100511.41;5025046;28;1786;-53
2021/08/05 03:18:48;;;;;;;;;;;;;;;24.30;52.95;100499.78;5033750;28;1828;-54
2021/08/05 03:21:19;;;;;;;;;;;;;;;24.26;53.67;100517.38;5034429;28;1099;-54
2021/08/05 03:24:01;;;;;;;;;;;;;;;24.22;53.46;100515.00;5033905;28;1926;-53
2021/08/05 03:26:33;;;;;;;;;;;;;;;24.16;53.61;100501.38;5015515;28;1554;-53
2021/08/05 03:29:00;;;;;;;;;;;;;;;24.26;53.46;100498.44;5015026;28;1991;-53
2021/08/05 03:31:27;;;;;;;;;;;;;;;24.31;53.76;100506.84;5016929;28;1111;-54
2021/08/05 03:33:54;;;;;;;;;;;;;;;24.32;53.93;100505.84;5014563;28;1938;-53
2021/08/05 03:36:21;;;;;;;;;;;;;;;24.37;53.57;100485.38;5030958;28;1787;-53
2021/08/05 03:38:48;;;;;;;;;;;;;;;24.40;53.61;100484.16;5018894;28;1991;-53
2021/08/05 03:41:16;;;;;;;;;;;;;;;24.36;53.40;100488.25;5015261;28;1756;-53
2021/08/05 03:43:48;;;;;;;;;;;;;;;24.22;54.09;100485.28;5014976;28;2019;-53
2021/08/05 03:46:15;;;;;;;;;;;;;;;24.31;53.51;100487.94;5022834;28;1937;-53
2021/08/05 03:48:44;;;;;;;;;;;;;;;24.29;53.58;100492.66;5032947;28;1910;-53
2021/08/05 03:51:15;;;;;;;;;;;;;;;24.23;53.52;100478.00;5033798;28;1103;-53
2021/08/05 03:53:42;;;;;;;;;;;;;;;24.27;53.80;100484.72;5025201;28;1826;-52
2021/08/05 03:56:10;;;;;;;;;;;;;;;24.36;53.38;100499.06;5033745;28;958;-53
2021/08/05 03:58:40;;;;;;;;;;;;;;;24.28;53.45;100481.03;5014347;28;1776;-53
2021/08/05 04:01:08;;;;;;;;;;;;;;;24.34;54.08;100477.63;5030614;28;1819;-53
2021/08/05 04:03:35;;;;;;;;;;;;;;;24.22;54.08;100477.16;5030872;28;1456;-53
2021/08/05 04:06:01;;;;;;;;;;;;;;;24.34;53.71;100468.66;5030944;28;2232;-53
2021/08/05 04:08:36;;;;;;;;;;;;;;;24.38;53.76;100472.69;5026969;28;1997;-53
2021/08/05 04:11:11;;;;;;;;;;;;;;;24.40;53.95;100467.97;5028141;28;1535;-53
2021/08/05 04:13:40;;;;;;;;;;;;;;;24.53;53.70;100467.38;5028742;28;1429;-53
2021/08/05 04:16:09;;;;;;;;;;;;;;;24.58;54.10;100462.28;5020983;28;1539;-53
2021/08/05 04:18:39;;;;;;;;;;;;;;;24.72;53.80;100461.50;5030353;28;1522;-53
2021/08/05 04:21:08;;;;;;;;;;;;;;;24.85;53.87;100469.03;5024974;28;1095;-53
2021/08/05 04:23:35;;;;;;;;;;;;;;;24.91;54.61;100467.44;5021806;28;1815;-53
2021/08/05 04:26:05;;;;;;;;;;;;;;;24.87;54.38;100464.28;5032594;28;1508;-53
2021/08/05 04:28:32;;;;;;;;;;;;;;;24.88;55.26;100451.59;5028799;28;1966;-55
2021/08/05 04:31:00;;;;;;;;;;;;;;;24.85;54.50;100469.03;5020748;28;1451;-53
2021/08/05 04:33:30;;;;;;;;;;;;;;;24.90;54.46;100463.91;5027122;28;1796;-53
2021/08/05 04:35:58;;;;;;;;;;;;;;;25.10;54.49;100463.41;5030004;28;1631;-53
2021/08/05 04:38:27;;;;;;;;;;;;;;;25.25;54.72;100458.88;5031981;28;2038;-54
2021/08/05 04:40:53;;;;;;;;;;;;;;;25.55;55.27;100469.75;5027721;28;1503;-57
2021/08/05 04:43:23;;;;;;;;;;;;;;;25.60;56.19;100461.88;5030120;28;1213;-56
2021/08/05 04:45:50;;;;;;;;;;;;;;;25.32;55.49;100456.28;5024216;28;1413;-56
2021/08/05 04:48:17;;;;;;;;;;;;;;;25.08;56.26;100460.03;5028925;28;1979;-55
2021/08/05 04:50:49;;;;;;;;;;;;;;;24.97;56.29;100454.03;5030015;28;1082;-56
2021/08/05 04:53:18;;;;;;;;;;;;;;;24.87;56.35;100447.19;5027935;28;1960;-56
2021/08/05 04:55:48;;;;;;;;;;;;;;;24.92;55.55;100444.78;5030286;28;1352;-56
2021/08/05 04:58:17;;;;;;;;;;;;;;;25.10;55.46;100455.28;5023446;28;1814;-55
2021/08/05 05:00:47;;;;;;;;;;;;;;;24.94;55.87;100442.75;5029739;28;1484;-55
2021/08/05 05:03:13;;;;;;;;;;;;;;;24.60;57.19;100444.88;5027625;28;1492;-55
2021/08/05 05:08:27;;;;;;;;;;;;;;;25.18;55.49;100441.66;5021831;28;2020;-56
2021/08/05 05:10:55;;;;;;;;;;;;;;;25.41;55.46;100449.75;5023649;28;1154;-58
2021/08/05 05:13:22;;;;;;;;;;;;;;;25.50;55.47;100447.78;5029156;28;1243;-57
2021/08/05 05:15:52;;;;;;;;;;;;;;;25.45;55.93;100447.53;5028565;28;1525;-57
2021/08/05 05:18:23;;;;;;;;;;;;;;;25.48;56.12;100449.84;5022367;28;1528;-57
2021/08/05 05:20:50;;;;;;;;;;;;;;;25.59;56.08;100452.09;5026251;28;1811;-57
2021/08/05 05:23:17;;;;;;;;;;;;;;;25.64;56.49;100448.81;5017567;28;11024;-58
2021/08/05 05:25:46;;;;;;;;;;;;;;;25.57;55.80;100437.91;5012228;28;1342;-57
2021/08/05 05:33:35;;;;;;;;;;;;;;;25.59;56.38;100436.69;5012619;28;1799;-58
2021/08/05 05:36:16;;;;;;;;;;;;;;;25.69;55.84;100441.81;5026588;28;1595;-57
2021/08/05 05:38:42;;;;;;;;;;;;;;;25.71;56.60;100434.34;5028686;28;1658;-57
2021/08/05 05:41:10;;;;;;;;;;;;;;;25.82;56.58;100451.16;5032329;28;1493;-57
2021/08/05 05:43:45;;;;;;;;;;;;;;;25.82;56.59;100429.47;5029655;28;1456;-57
2021/08/05 05:46:15;;;;;;;;;;;;;;;25.78;56.32;100424.44;5034472;28;1913;-57
2021/08/05 05:48:43;;;;;;;;;;;;;;;25.92;56.03;100417.34;5031905;28;1976;-57
2021/08/05 05:51:09;;;;;;;;;;;;;;;25.93;56.81;100393.81;5035894;28;1149;-57
2021/08/05 05:53:38;;;;;;;;;;;;;;;25.98;56.96;100408.47;5035946;28;2001;-57
2021/08/05 05:56:05;;;;;;;;;;;;;;;25.90;58.75;100410.41;5035294;28;1329;-56
2021/08/05 05:58:33;;;;;;;;;;;;;;;25.94;60.24;100412.59;5034368;28;1075;-56
2021/08/05 06:01:00;;;;;;;;;;;;;;;25.84;62.71;100395.75;5035604;28;1132;-56
2021/08/05 06:03:26;;;;;;;;;;;;;;;25.86;62.78;100414.53;5036333;28;1423;-56
2021/08/05 06:05:53;;;;;;;;;;;;;;;25.83;62.74;100404.91;5037285;28;1054;-56
2021/08/05 06:08:19;;;;;;;;;;;;;;;25.81;62.45;100393.44;5037237;28;1969;-56
2021/08/05 06:10:46;;;;;;;;;;;;;;;25.82;61.71;100395.09;5035820;28;1011;-56
2021/08/05 06:13:13;;;;;;;;;;;;;;;25.90;62.16;100388.72;5037197;28;1082;-56
2021/08/05 06:15:40;;;;;;;;;;;;;;;25.87;61.55;100378.28;5036920;28;1079;-56
2021/08/05 06:18:07;;;;;;;;;;;;;;;25.89;60.91;100384.34;5036890;28;947;-55
2021/08/05 06:20:33;;;;;;;;;;;;;;;25.89;60.74;100387.91;5036936;28;1114;-55
2021/08/05 06:23:00;;;;;;;;;;;;;;;25.92;60.84;100392.13;5036738;28;1091;-55
2021/08/05 06:25:26;;;;;;;;;;;;;;;25.94;60.18;100382.78;5036708;28;1107;-56
2021/08/05 06:27:53;;;;;;;;;;;;;;;25.95;59.98;100381.75;5036940;28;1085;-56
2021/08/05 06:30:19;;;;;;;;;;;;;;;25.93;59.86;100378.38;5036481;28;1902;-55
2021/08/05 06:32:49;;;;;;;;;;;;;;;25.96;60.22;100371.75;5036870;28;1062;-56
2021/08/05 06:35:15;;;;;;;;;;;;;;;25.98;59.61;100375.97;5036491;28;951;-56
2021/08/05 06:37:42;;;;;;;;;;;;;;;25.98;59.84;100369.69;5036821;28;1055;-56
2021/08/05 06:40:08;;;;;;;;;;;;;;;25.98;59.43;100343.44;5036450;28;1187;-56
2021/08/05 06:42:35;;;;;;;;;;;;;;;25.98;59.38;100342.59;5036622;28;1003;-55
2021/08/05 06:45:03;;;;;;;;;;;;;;;26.03;59.23;100351.00;5036645;28;1093;-56
2021/08/05 06:47:30;;;;;;;;;;;;;;;26.03;59.33;100345.56;5036268;28;1095;-55
2021/08/05 06:49:58;;;;;;;;;;;;;;;26.03;59.29;100337.44;5036041;28;1910;-56
2021/08/05 06:52:24;;;;;;;;;;;;;;;26.06;59.44;100353.28;5036199;28;1099;-56
2021/08/05 06:54:51;;;;;;;;;;;;;;;26.06;59.17;100333.50;5036625;28;958;-56
2021/08/05 06:57:17;;;;;;;;;;;;;;;26.06;59.38;100326.19;5036468;28;1070;-56
2021/08/05 06:59:44;;;;;;;;;;;;;;;26.08;59.23;100326.84;5036384;28;1050;-56
2021/08/05 07:02:10;;;;;;;;;;;;;;;26.05;59.36;100321.00;5035914;28;1404;-56
2021/08/05 07:04:37;;;;;;;;;;;;;;;26.07;59.04;100303.50;5035936;28;1162;-55
2021/08/05 07:07:05;;;;;;;;;;;;;;;26.11;58.95;100314.81;5035817;28;1052;-55
2021/08/05 07:09:31;;;;;;;;;;;;;;;26.10;59.48;100313.97;5035783;28;1910;-56
2021/08/05 07:11:58;;;;;;;;;;;;;;;26.11;59.09;100299.38;5035822;28;946;-55
2021/08/05 07:14:24;;;;;;;;;;;;;;;26.09;58.68;100287.06;5036127;28;995;-56
2021/08/05 07:16:50;;;;;;;;;;;;;;;26.13;59.03;100301.91;5036044;28;1077;-55
2021/08/05 07:19:17;;;;;;;;;;;;;;;26.14;58.71;100290.88;5035974;28;1074;-55
2021/08/05 07:21:44;;;;;;;;;;;;;;;26.16;59.35;100290.66;5035638;28;1166;-56
2021/08/05 07:24:12;;;;;;;;;;;;;;;26.13;58.78;100274.78;5035925;28;995;-56
2021/08/05 07:26:39;;;;;;;;;;;;;;;26.13;58.83;100267.50;5035869;28;1038;-56
2021/08/05 07:29:05;;;;;;;;;;;;;;;26.14;58.73;100265.63;5035344;28;1905;-56
2021/08/05 07:31:32;;;;;;;;;;;;;;;26.15;58.85;100264.59;5035480;28;1067;-56
2021/08/05 07:33:58;;;;;;;;;;;;;;;26.16;58.72;100256.28;5035741;28;1000;-55
2021/08/05 07:36:26;;;;;;;;;;;;;;;26.16;59.04;100258.13;5035714;28;1080;-56
2021/08/05 07:38:53;;;;;;;;;;;;;;;26.13;58.61;100258.53;5035381;28;1130;-55
2021/08/05 07:41:21;;;;;;;;;;;;;;;26.18;59.00;100269.63;5035488;28;1076;-56
2021/08/05 07:43:47;;;;;;;;;;;;;;;26.15;58.64;100249.16;5035261;28;1154;-55
2021/08/05 07:46:13;;;;;;;;;;;;;;;26.15;59.28;100257.31;5035510;28;1080;-55
2021/08/05 07:48:40;;;;;;;;;;;;;;;26.16;59.33;100252.72;5035454;28;2298;-55
2021/08/05 07:51:07;;;;;;;;;;;;;;;26.18;58.67;100240.66;5035424;28;1070;-56
2021/08/05 07:53:33;;;;;;;;;;;;;;;26.17;58.85;100244.38;5034972;28;1083;-56
2021/08/05 07:56:00;;;;;;;;;;;;;;;26.16;59.43;100240.03;5035315;28;1003;-55
2021/08/05 07:58:28;;;;;;;;;;;;;;;26.18;58.32;100232.53;5034939;28;1147;-55
2021/08/05 08:00:54;;;;;;;;;;;;;;;26.19;58.42;100231.47;5034403;28;999;-56
2021/08/05 08:03:20;;;;;;;;;;;;;;;26.22;58.98;100234.84;5034681;28;1477;-55
2021/08/05 08:05:47;;;;;;;;;;;;;;;26.21;59.24;100214.19;5034757;28;1163;-56
2021/08/05 08:08:16;;;;;;;;;;;;;;;26.19;58.56;100231.47;5035099;28;1052;-56
2021/08/05 08:10:42;;;;;;;;;;;;;;;26.21;58.91;100228.59;5034691;28;1969;-56
2021/08/05 08:13:09;;;;;;;;;;;;;;;26.19;58.73;100226.06;5034998;28;1089;-56
2021/08/05 08:15:37;;;;;;;;;;;;;;;26.22;58.80;100224.00;5034966;28;1035;-56
2021/08/05 08:18:03;;;;;;;;;;;;;;;26.21;58.84;100217.75;5034794;28;1003;-55
2021/08/05 08:20:31;;;;;;;;;;;;;;;26.21;58.89;100212.31;5034850;28;1073;-56
2021/08/05 08:22:57;;;;;;;;;;;;;;;26.23;58.48;100215.66;5034799;28;1032;-56
2021/08/05 08:25:24;;;;;;;;;;;;;;;26.24;58.53;100221.91;5034725;28;1098;-55
2021/08/05 08:27:50;;;;;;;;;;;;;;;26.25;58.78;100207.34;5034720;28;1090;-56
2021/08/05 08:30:17;;;;;;;;;;;;;;;26.22;58.34;100202.31;5034555;28;1906;-56
2021/08/05 08:32:47;;;;;;;;;;;;;;;26.25;58.37;100213.59;5034323;28;1174;-55
2021/08/05 08:35:13;;;;;;;;;;;;;;;26.25;59.14;100200.06;5034568;28;1066;-56
2021/08/05 08:37:40;;;;;;;;;;;;;;;26.22;58.85;100183.34;5034205;28;1079;-55
2021/08/05 08:40:07;;;;;;;;;;;;;;;26.25;58.73;100199.22;5034492;28;1034;-55
2021/08/05 08:42:34;;;;;;;;;;;;;;;26.21;58.76;100187.94;5034053;28;1100;-56
2021/08/05 08:45:00;;;;;;;;;;;;;;;26.25;58.51;100197.34;5034420;28;1107;-56
2021/08/05 08:47:28;;;;;;;;;;;;;;;26.28;58.79;100182.53;5034072;28;1293;-55
2021/08/05 08:49:58;;;;;;;;;;;;;;;26.24;58.41;100183.97;5034149;28;1906;-55
2021/08/05 08:52:26;;;;;;;;;;;;;;;26.22;58.33;100170.63;5033959;28;1091;-56
2021/08/05 08:54:53;;;;;;;;;;;;;;;26.25;59.09;100181.06;5033830;28;1071;-55
2021/08/05 08:57:23;;;;;;;;;;;;;;;26.24;58.27;100170.44;5033915;28;1068;-55
2021/08/05 08:59:50;;;;;;;;;;;;;;;26.28;58.35;100182.53;5034139;28;1024;-56
2021/08/05 09:02:17;;;;;;;;;;;;;;;26.25;58.88;100172.94;5033771;28;1510;-56
2021/08/05 09:04:44;;;;;;;;;;;;;;;26.25;59.12;100161.28;5033746;28;1340;-56
2021/08/05 09:07:13;;;;;;;;;;;;;;;26.25;59.04;100164.00;5033955;28;1056;-56
2021/08/05 09:09:39;;;;;;;;;;;;;;;26.29;58.56;100171.50;5033660;28;1979;-56
2021/08/05 09:12:08;;;;;;;;;;;;;;;26.28;58.69;100161.72;5033533;28;927;-55
2021/08/05 09:14:41;;;;;;;;;;;;;;;26.30;58.34;100164.22;5033987;28;1050;-56
2021/08/05 09:17:22;;;;;;;;;;;;;;;26.29;58.20;100157.13;5033869;28;995;-56
2021/08/05 09:19:50;;;;;;;;;;;;;;;26.30;58.86;100150.66;5033858;28;1070;-55
2021/08/05 09:22:31;;;;;;;;;;;;;;;26.26;58.63;100152.94;5033540;28;1120;-56
2021/08/05 09:24:57;;;;;;;;;;;;;;;26.25;58.65;100155.84;5033849;28;1055;-56
2021/08/05 09:27:30;;;;;;;;;;;;;;;26.29;58.70;100149.00;5033793;28;1080;-55
2021/08/05 09:29:59;;;;;;;;;;;;;;;26.29;59.15;100138.16;5033634;28;1906;-56
2021/08/05 09:32:26;;;;;;;;;;;;;;;26.28;58.71;100142.75;5033450;28;1110;-56
2021/08/05 09:35:03;;;;;;;;;;;;;;;26.27;59.10;100129.38;5033655;28;995;-56
2021/08/05 09:37:36;;;;;;;;;;;;;;;26.30;58.56;100128.97;5033621;28;1001;-56
2021/08/05 09:40:09;;;;;;;;;;;;;;;26.28;58.71;100131.91;5033669;28;1067;-55
2021/08/05 09:42:35;;;;;;;;;;;;;;;26.31;59.07;100117.09;5033460;28;1086;-55
2021/08/05 09:45:02;;;;;;;;;;;;;;;26.31;59.27;100136.09;5033370;28;1122;-56
2021/08/05 09:47:28;;;;;;;;;;;;;;;26.32;58.92;100129.59;5033622;28;1073;-56
2021/08/05 09:49:56;;;;;;;;;;;;;;;26.31;58.92;100128.78;5033199;28;1977;-56
2021/08/05 09:52:26;;;;;;;;;;;;;;;26.27;59.21;100113.13;5033227;28;1127;-55
2021/08/05 09:54:54;;;;;;;;;;;;;;;26.32;58.53;100118.75;5033190;28;1186;-56
2021/08/05 09:57:22;;;;;;;;;;;;;;;26.31;58.85;100119.81;5033452;28;1074;-56
2021/08/05 09:59:56;;;;;;;;;;;;;;;26.30;58.88;100112.72;5033211;28;1155;-56
2021/08/05 10:02:24;;;;;;;;;;;;;;;26.31;58.43;100109.81;5033035;28;1405;-55
2021/08/05 10:04:51;;;;;;;;;;;;;;;26.29;59.01;100094.78;5033172;28;1134;-56
2021/08/05 10:07:23;;;;;;;;;;;;;;;26.30;59.00;100091.03;5033382;28;1077;-55
2021/08/05 10:09:58;;;;;;;;;;;;;;;26.31;59.19;100093.53;5033067;28;1980;-55
2021/08/05 10:12:30;;;;;;;;;;;;;;;26.32;58.42;100099.78;5033372;28;1046;-56
2021/08/05 10:15:04;;;;;;;;;;;;;;;26.29;58.75;100097.50;5033411;28;1068;-55
2021/08/05 10:17:31;;;;;;;;;;;;;;;26.35;59.00;100093.97;5033296;28;1072;-56
2021/08/05 10:19:58;;;;;;;;;;;;;;;26.34;58.89;100098.56;5033305;28;1027;-56
2021/08/05 10:22:25;;;;;;;;;;;;;;;26.29;59.46;100084.78;5032957;28;1174;-56
2021/08/05 10:24:52;;;;;;;;;;;;;;;26.30;59.39;100085.59;5035883;28;1012;-56
2021/08/05 10:27:20;;;;;;;;;;;;;;;26.33;59.12;100071.66;5036979;28;1180;-56
2021/08/05 10:29:49;;;;;;;;;;;;;;;26.33;58.67;100083.34;5036786;28;1977;-55
2021/08/05 10:32:16;;;;;;;;;;;;;;;26.33;59.26;100079.78;5036884;28;1073;-55
2021/08/05 10:34:43;;;;;;;;;;;;;;;26.29;58.87;100070.41;5036882;28;991;-56
2021/08/05 10:37:11;;;;;;;;;;;;;;;26.34;59.09;100062.47;5036789;28;1122;-56
2021/08/05 10:39:38;;;;;;;;;;;;;;;26.31;59.29;100052.88;5036783;28;1011;-55
2021/08/05 10:42:06;;;;;;;;;;;;;;;26.31;59.37;100052.06;5036335;28;1092;-55
2021/08/05 10:44:34;;;;;;;;;;;;;;;26.31;59.34;100046.63;5036354;28;1100;-56
2021/08/05 10:47:01;;;;;;;;;;;;;;;26.32;58.67;100053.72;5036320;28;1182;-55
2021/08/05 10:49:28;;;;;;;;;;;;;;;26.30;59.36;100042.22;5036527;28;1971;-56
2021/08/05 10:51:54;;;;;;;;;;;;;;;26.34;58.98;100051.63;5036537;28;998;-55
2021/08/05 10:54:35;;;;;;;;;;;;;;;26.34;59.32;100038.09;5036105;28;1162;-55
2021/08/05 10:57:14;;;;;;;;;;;;;;;26.35;59.35;100039.78;5035389;28;1680;-55
2021/08/05 10:59:57;;;;;;;;;;;;;;;26.32;58.92;100029.31;5036121;28;1075;-56
2021/08/05 11:02:42;;;;;;;;;;;;;;;26.32;59.30;100021.19;5035909;28;1504;-56
2021/08/05 11:05:09;;;;;;;;;;;;;;;26.33;59.08;100029.13;5036042;28;1200;-55
2021/08/05 11:07:35;;;;;;;;;;;;;;;26.38;59.51;100017.66;5035874;28;1146;-56
2021/08/05 11:10:26;;;;;;;;;;;;;;;26.35;59.49;100004.53;5035814;28;1933;-56
2021/08/05 11:12:54;;;;;;;;;;;;;;;26.39;59.04;100008.50;5020726;28;1429;-55
2021/08/05 11:15:35;;;;;;;;;;;;;;;26.36;59.02;100000.75;5035765;28;1138;-56
2021/08/05 11:18:19;;;;;;;;;;;;;;;26.38;58.88;99998.69;5023077;28;1693;-56
2021/08/05 11:20:47;;;;;;;;;;;;;;;26.37;59.40;99988.91;5036013;28;992;-56
2021/08/05 11:23:44;;;;;;;;;;;;;;;26.43;59.33;99996.22;5035995;28;1084;-55
2021/08/05 11:26:11;;;;;;;;;;;;;;;26.43;59.37;99979.94;4975340;28;1931;-55
2021/08/05 11:28:47;;;;;;;;;;;;;;;26.37;59.01;99978.88;5021500;28;1254;-55
2021/08/05 11:31:26;;;;;;;;;;;;;;;26.40;59.34;99966.78;5035679;28;1977;-55
2021/08/05 11:33:55;;;;;;;;;;;;;;;26.38;58.61;99968.88;5035726;28;1015;-56
2021/08/05 11:36:22;;;;;;;;;;;;;;;26.38;59.32;99967.00;5034501;28;1055;-56
2021/08/05 11:38:56;;;;;;;;;;;;;;;26.46;59.18;99975.97;5035370;28;1043;-56
2021/08/05 11:41:37;;;;;;;;;;;;;;;26.42;59.30;99958.47;5035526;28;1039;-56
2021/08/05 11:44:17;;;;;;;;;;;;;;;26.39;59.51;99957.81;5035281;28;1072;-56
2021/08/05 11:46:47;;;;;;;;;;;;;;;26.41;59.24;99983.91;5035207;28;1072;-55
2021/08/05 11:49:28;;;;;;;;;;;;;;;26.41;59.25;99965.75;5035459;28;1055;-56
2021/08/05 11:51:56;;;;;;;;;;;;;;;26.43;58.92;99957.44;5035022;28;1991;-56
2021/08/05 11:54:23;;;;;;;;;;;;;;;26.41;59.43;99951.38;5035293;28;1071;-56
2021/08/05 11:56:58;;;;;;;;;;;;;;;26.39;59.17;99943.44;5035329;28;1070;-56
2021/08/05 11:59:38;;;;;;;;;;;;;;;26.38;59.42;99939.91;5035276;28;998;-55
2021/08/05 12:02:05;;;;;;;;;;;;;;;26.41;59.51;99925.09;5034666;28;1495;-55
2021/08/05 12:04:32;;;;;;;;;;;;;;;26.41;59.33;99941.38;5034786;28;1159;-55
2021/08/05 12:07:22;;;;;;;;;;;;;;;26.47;59.15;99943.25;5034731;28;1233;-55
2021/08/05 12:09:49;;;;;;;;;;;;;;;26.41;59.52;99930.53;5034756;28;1980;-56
2021/08/05 12:12:16;;;;;;;;;;;;;;;26.43;59.05;99924.91;5034733;28;1138;-55
2021/08/05 12:14:46;;;;;;;;;;;;;;;26.41;59.18;99918.84;5034685;28;1100;-56
2021/08/05 12:17:12;;;;;;;;;;;;;;;26.42;59.73;99921.34;5035538;28;1003;-56
2021/08/05 12:19:47;;;;;;;;;;;;;;;26.42;59.54;99915.91;5033488;28;1107;-56
2021/08/05 12:22:13;;;;;;;;;;;;;;;26.43;59.09;99914.88;5032419;28;1107;-56
2021/08/05 12:24:49;;;;;;;;;;;;;;;26.42;58.84;99910.50;5032922;28;1054;-56
2021/08/05 12:27:18;;;;;;;;;;;;;;;26.46;59.71;99895.50;5034223;28;1136;-56
2021/08/05 12:29:56;;;;;;;;;;;;;;;26.43;59.09;99900.50;5034637;28;1043;-56
2021/08/05 12:32:23;;;;;;;;;;;;;;;26.44;59.43;99894.88;5034649;28;1078;-56
2021/08/05 12:34:49;;;;;;;;;;;;;;;26.51;59.26;99903.84;5034600;28;1003;-56
2021/08/05 12:37:16;;;;;;;;;;;;;;;26.46;59.65;99890.09;5034327;28;1934;-56
2021/08/05 12:39:42;;;;;;;;;;;;;;;26.49;59.06;99899.69;5034473;28;1074;-56
2021/08/05 12:42:11;;;;;;;;;;;;;;;26.50;59.64;99896.75;5034147;28;1155;-56
2021/08/05 12:44:38;;;;;;;;;;;;;;;26.48;59.43;99887.16;5034446;28;999;-55
2021/08/05 12:47:05;;;;;;;;;;;;;;;26.46;59.41;99884.66;5033995;28;1071;-55
2021/08/05 12:49:33;;;;;;;;;;;;;;;26.48;59.76;99882.59;5034348;28;1004;-56
2021/08/05 12:52:00;;;;;;;;;;;;;;;26.47;59.22;99880.91;5033888;28;1906;-56
2021/08/05 12:54:27;;;;;;;;;;;;;;;26.48;59.29;99888.00;5033888;28;1087;-55
2021/08/05 12:56:55;;;;;;;;;;;;;;;26.44;59.33;99859.63;5033906;28;1151;-56
2021/08/05 12:59:25;;;;;;;;;;;;;;;26.47;59.04;99870.06;5033841;28;1012;-55
2021/08/05 13:02:05;;;;;;;;;;;;;;;26.46;59.73;99859.41;5033780;28;1468;-56
2021/08/05 13:04:34;;;;;;;;;;;;;;;26.45;59.53;99850.44;5034090;28;1082;-55
2021/08/05 13:07:01;;;;;;;;;;;;;;;26.44;59.68;99848.78;5033689;28;1064;-56
2021/08/05 13:09:28;;;;;;;;;;;;;;;26.45;59.56;99847.75;5034030;28;1098;-56